sensor_id;sensor_type;location;lat;lon;timestamp;temperature;humidity
10802;DHT22;5453;50.852;7.102;2023-05-10T00:01:56;15.00;99.90
10802;DHT22;5453;50.852;7.102;2023-05-10T00:04:28;15.00;99.90
10802;DHT22;5453;50.852;7.102;2023-05-10T00:07:00;15.00;99.90
10802;DHT22;5453;50.852;7.102;2023-05-10T00:09:32;15.00;99.90
10802;DHT22;5453;50.852;7.102;2023-05-10T00:12:05;15.00;99.90
10802;DHT22;5453;50.852;7.102;2023-05-10T00:14:38;15.00;99.90
10802;DHT22;5453;50.852;7.102;2023-05-10T00:17:10;15.00;99.90
10802;DHT22;5453;50.852;7.102;2023-05-10T00:19:42;15.00;99.90
10802;DHT22;5453;50.852;7.102;2023-05-10T00:22:14;15.00;99.90
10802;DHT22;5453;50.852;7.102;2023-05-10T00:24:46;15.00;99.90
10802;DHT22;5453;50.852;7.102;2023-05-10T00:27:18;15.00;99.90
10802;DHT22;5453;50.852;7.102;2023-05-10T00:29:52;15.00;99.90
10802;DHT22;5453;50.852;7.102;2023-05-10T00:32:24;15.10;99.90
10802;DHT22;5453;50.852;7.102;2023-05-10T00:34:56;15.10;99.90
10802;DHT22;5453;50.852;7.102;2023-05-10T00:37:28;15.10;99.90
10802;DHT22;5453;50.852;7.102;2023-05-10T00:40:00;15.10;99.90
10802;DHT22;5453;50.852;7.102;2023-05-10T00:42:33;15.10;99.90
10802;DHT22;5453;50.852;7.102;2023-05-10T00:45:07;15.10;99.90
10802;DHT22;5453;50.852;7.102;2023-05-10T00:47:40;15.10;99.90
10802;DHT22;5453;50.852;7.102;2023-05-10T00:50:12;15.10;99.90
10802;DHT22;5453;50.852;7.102;2023-05-10T00:52:45;15.10;99.90
10802;DHT22;5453;50.852;7.102;2023-05-10T00:55:18;15.10;99.90
10802;DHT22;5453;50.852;7.102;2023-05-10T00:57:50;15.10;99.90
10802;DHT22;5453;50.852;7.102;2023-05-10T01:00:24;15.10;99.90
10802;DHT22;5453;50.852;7.102;2023-05-10T01:02:56;15.10;99.90
10802;DHT22;5453;50.852;7.102;2023-05-10T01:05:28;15.10;99.90
10802;DHT22;5453;50.852;7.102;2023-05-10T01:08:02;15.10;99.90
10802;DHT22;5453;50.852;7.102;2023-05-10T01:10:34;15.10;99.90
10802;DHT22;5453;50.852;7.102;2023-05-10T01:13:06;15.10;99.90
10802;DHT22;5453;50.852;7.102;2023-05-10T01:15:40;15.10;99.90
10802;DHT22;5453;50.852;7.102;2023-05-10T01:18:13;15.10;99.90
10802;DHT22;5453;50.852;7.102;2023-05-10T01:20:48;15.10;99.90
10802;DHT22;5453;50.852;7.102;2023-05-10T01:24:00;15.10;99.90
10802;DHT22;5453;50.852;7.102;2023-05-10T01:27:06;15.10;99.90
10802;DHT22;5453;50.852;7.102;2023-05-10T01:33:30;15.00;99.90
10802;DHT22;5453;50.852;7.102;2023-05-10T01:36:08;15.00;99.90
10802;DHT22;5453;50.852;7.102;2023-05-10T01:38:50;15.00;99.90
10802;DHT22;5453;50.852;7.102;2023-05-10T01:41:29;15.00;99.90
10802;DHT22;5453;50.852;7.102;2023-05-10T01:44:14;15.00;99.90
10802;DHT22;5453;50.852;7.102;2023-05-10T01:46:55;15.00;99.90
10802;DHT22;5453;50.852;7.102;2023-05-10T01:49:33;15.00;99.90
10802;DHT22;5453;50.852;7.102;2023-05-10T01:52:10;15.00;99.90
10802;DHT22;5453;50.852;7.102;2023-05-10T01:54:49;15.00;99.90
10802;DHT22;5453;50.852;7.102;2023-05-10T01:57:26;15.00;99.90
10802;DHT22;5453;50.852;7.102;2023-05-10T02:00:02;15.00;99.90
10802;DHT22;5453;50.852;7.102;2023-05-10T02:02:46;15.00;99.90
10802;DHT22;5453;50.852;7.102;2023-05-10T02:05:21;15.00;99.90
10802;DHT22;5453;50.852;7.102;2023-05-10T02:07:55;15.10;99.90
10802;DHT22;5453;50.852;7.102;2023-05-10T02:10:28;15.00;99.90
10802;DHT22;5453;50.852;7.102;2023-05-10T02:13:02;15.00;99.90
10802;DHT22;5453;50.852;7.102;2023-05-10T02:15:35;15.00;99.90
10802;DHT22;5453;50.852;7.102;2023-05-10T02:18:09;15.00;99.90
10802;DHT22;5453;50.852;7.102;2023-05-10T02:20:46;15.00;99.90
10802;DHT22;5453;50.852;7.102;2023-05-10T02:23:20;15.00;99.90
10802;DHT22;5453;50.852;7.102;2023-05-10T02:25:54;15.00;99.90
10802;DHT22;5453;50.852;7.102;2023-05-10T02:28:28;15.00;99.90
10802;DHT22;5453;50.852;7.102;2023-05-10T02:31:01;15.00;99.90
10802;DHT22;5453;50.852;7.102;2023-05-10T02:33:34;15.00;99.90
10802;DHT22;5453;50.852;7.102;2023-05-10T02:36:09;15.00;99.90
10802;DHT22;5453;50.852;7.102;2023-05-10T02:38:43;15.00;99.90
10802;DHT22;5453;50.852;7.102;2023-05-10T02:41:16;14.90;99.90
10802;DHT22;5453;50.852;7.102;2023-05-10T02:43:51;15.00;99.90
10802;DHT22;5453;50.852;7.102;2023-05-10T02:46:28;15.00;99.90
10802;DHT22;5453;50.852;7.102;2023-05-10T02:49:01;14.90;99.90
10802;DHT22;5453;50.852;7.102;2023-05-10T02:51:36;14.90;99.90
10802;DHT22;5453;50.852;7.102;2023-05-10T02:54:13;14.90;99.90
10802;DHT22;5453;50.852;7.102;2023-05-10T02:56:57;14.90;99.90
10802;DHT22;5453;50.852;7.102;2023-05-10T02:59:30;14.90;99.90
10802;DHT22;5453;50.852;7.102;2023-05-10T03:02:03;14.90;99.90
10802;DHT22;5453;50.852;7.102;2023-05-10T03:04:35;14.90;99.90
10802;DHT22;5453;50.852;7.102;2023-05-10T03:07:09;14.90;99.90
10802;DHT22;5453;50.852;7.102;2023-05-10T03:09:42;14.90;99.90
10802;DHT22;5453;50.852;7.102;2023-05-10T03:12:20;14.90;99.90
10802;DHT22;5453;50.852;7.102;2023-05-10T03:15:03;14.90;99.90
10802;DHT22;5453;50.852;7.102;2023-05-10T03:17:45;14.90;99.90
10802;DHT22;5453;50.852;7.102;2023-05-10T03:20:24;14.90;99.90
10802;DHT22;5453;50.852;7.102;2023-05-10T03:23:04;14.80;99.90
10802;DHT22;5453;50.852;7.102;2023-05-10T03:25:40;14.80;99.90
10802;DHT22;5453;50.852;7.102;2023-05-10T03:28:18;14.80;99.90
10802;DHT22;5453;50.852;7.102;2023-05-10T03:30:52;14.80;99.90
10802;DHT22;5453;50.852;7.102;2023-05-10T03:33:25;14.80;99.90
10802;DHT22;5453;50.852;7.102;2023-05-10T03:35:57;14.80;99.90
10802;DHT22;5453;50.852;7.102;2023-05-10T03:38:32;14.70;99.90
10802;DHT22;5453;50.852;7.102;2023-05-10T03:41:04;14.70;99.90
10802;DHT22;5453;50.852;7.102;2023-05-10T03:43:37;14.70;99.90
10802;DHT22;5453;50.852;7.102;2023-05-10T03:46:09;14.70;99.90
10802;DHT22;5453;50.852;7.102;2023-05-10T03:48:41;14.70;99.90
10802;DHT22;5453;50.852;7.102;2023-05-10T03:51:13;14.70;99.90
10802;DHT22;5453;50.852;7.102;2023-05-10T03:53:46;14.70;99.90
10802;DHT22;5453;50.852;7.102;2023-05-10T03:56:19;14.80;99.90
10802;DHT22;5453;50.852;7.102;2023-05-10T03:58:51;14.80;99.90
10802;DHT22;5453;50.852;7.102;2023-05-10T04:01:23;14.80;99.90
10802;DHT22;5453;50.852;7.102;2023-05-10T04:03:55;14.70;99.90
10802;DHT22;5453;50.852;7.102;2023-05-10T04:06:27;14.70;99.90
10802;DHT22;5453;50.852;7.102;2023-05-10T04:09:01;14.70;99.90
10802;DHT22;5453;50.852;7.102;2023-05-10T04:11:34;14.70;99.90
10802;DHT22;5453;50.852;7.102;2023-05-10T04:14:06;14.70;99.90
10802;DHT22;5453;50.852;7.102;2023-05-10T04:16:38;14.70;99.90
10802;DHT22;5453;50.852;7.102;2023-05-10T04:19:10;14.70;99.90
10802;DHT22;5453;50.852;7.102;2023-05-10T04:21:42;14.70;99.90
10802;DHT22;5453;50.852;7.102;2023-05-10T04:24:16;14.70;99.90
10802;DHT22;5453;50.852;7.102;2023-05-10T04:26:48;14.70;99.90
10802;DHT22;5453;50.852;7.102;2023-05-10T04:29:20;14.70;99.90
10802;DHT22;5453;50.852;7.102;2023-05-10T04:31:52;14.70;99.90
10802;DHT22;5453;50.852;7.102;2023-05-10T04:34:24;14.70;99.90
10802;DHT22;5453;50.852;7.102;2023-05-10T04:36:56;14.70;99.90
10802;DHT22;5453;50.852;7.102;2023-05-10T04:39:29;14.70;99.90
10802;DHT22;5453;50.852;7.102;2023-05-10T04:42:02;14.60;99.90
10802;DHT22;5453;50.852;7.102;2023-05-10T04:44:36;14.70;99.90
10802;DHT22;5453;50.852;7.102;2023-05-10T04:47:08;14.60;99.90
10802;DHT22;5453;50.852;7.102;2023-05-10T04:49:40;14.60;99.90
10802;DHT22;5453;50.852;7.102;2023-05-10T04:52:12;14.60;99.90
10802;DHT22;5453;50.852;7.102;2023-05-10T04:54:46;14.60;99.90
10802;DHT22;5453;50.852;7.102;2023-05-10T04:57:18;14.70;99.90
10802;DHT22;5453;50.852;7.102;2023-05-10T04:59:50;14.70;99.90
10802;DHT22;5453;50.852;7.102;2023-05-10T05:02:22;14.70;99.90
10802;DHT22;5453;50.852;7.102;2023-05-10T05:04:56;14.70;99.90
10802;DHT22;5453;50.852;7.102;2023-05-10T05:07:29;14.80;99.90
10802;DHT22;5453;50.852;7.102;2023-05-10T05:10:03;14.80;99.90
10802;DHT22;5453;50.852;7.102;2023-05-10T05:12:36;14.80;99.90
10802;DHT22;5453;50.852;7.102;2023-05-10T05:15:08;14.80;99.90
10802;DHT22;5453;50.852;7.102;2023-05-10T05:17:41;14.80;99.90
10802;DHT22;5453;50.852;7.102;2023-05-10T05:20:13;14.80;99.90
10802;DHT22;5453;50.852;7.102;2023-05-10T05:22:45;14.80;99.90
10802;DHT22;5453;50.852;7.102;2023-05-10T05:25:19;14.80;99.90
10802;DHT22;5453;50.852;7.102;2023-05-10T05:27:51;14.70;99.90
10802;DHT22;5453;50.852;7.102;2023-05-10T05:30:23;14.70;99.90
10802;DHT22;5453;50.852;7.102;2023-05-10T05:32:55;14.70;99.90
10802;DHT22;5453;50.852;7.102;2023-05-10T05:35:27;14.70;99.90
10802;DHT22;5453;50.852;7.102;2023-05-10T05:37:59;14.70;99.90
10802;DHT22;5453;50.852;7.102;2023-05-10T05:40:33;14.70;99.90
10802;DHT22;5453;50.852;7.102;2023-05-10T05:43:05;14.70;99.90
10802;DHT22;5453;50.852;7.102;2023-05-10T05:45:37;14.70;99.90
10802;DHT22;5453;50.852;7.102;2023-05-10T05:48:09;14.70;99.90
10802;DHT22;5453;50.852;7.102;2023-05-10T05:50:41;14.70;99.90
10802;DHT22;5453;50.852;7.102;2023-05-10T05:53:14;14.60;99.90
10802;DHT22;5453;50.852;7.102;2023-05-10T05:55:58;14.60;99.90
10802;DHT22;5453;50.852;7.102;2023-05-10T05:58:30;14.70;99.90
10802;DHT22;5453;50.852;7.102;2023-05-10T06:01:02;14.70;99.90
10802;DHT22;5453;50.852;7.102;2023-05-10T06:03:34;14.70;99.90
10802;DHT22;5453;50.852;7.102;2023-05-10T06:06:06;14.70;99.90
10802;DHT22;5453;50.852;7.102;2023-05-10T06:08:38;14.70;99.90
10802;DHT22;5453;50.852;7.102;2023-05-10T06:11:12;14.70;99.90
10802;DHT22;5453;50.852;7.102;2023-05-10T06:13:44;14.70;99.90
10802;DHT22;5453;50.852;7.102;2023-05-10T06:16:16;14.80;99.90
10802;DHT22;5453;50.852;7.102;2023-05-10T06:18:49;14.80;99.90
10802;DHT22;5453;50.852;7.102;2023-05-10T06:21:21;14.80;99.90
10802;DHT22;5453;50.852;7.102;2023-05-10T06:23:53;14.80;99.90
10802;DHT22;5453;50.852;7.102;2023-05-10T06:26:27;14.80;99.90
10802;DHT22;5453;50.852;7.102;2023-05-10T06:28:59;14.80;99.90
10802;DHT22;5453;50.852;7.102;2023-05-10T06:31:32;14.90;99.90
10802;DHT22;5453;50.852;7.102;2023-05-10T06:34:04;14.90;99.90
10802;DHT22;5453;50.852;7.102;2023-05-10T06:36:38;14.90;99.90
10802;DHT22;5453;50.852;7.102;2023-05-10T06:39:10;15.00;99.90
10802;DHT22;5453;50.852;7.102;2023-05-10T06:41:44;15.00;99.90
10802;DHT22;5453;50.852;7.102;2023-05-10T06:44:16;15.10;99.90
10802;DHT22;5453;50.852;7.102;2023-05-10T06:46:48;15.10;99.90
10802;DHT22;5453;50.852;7.102;2023-05-10T06:49:21;15.10;99.90
10802;DHT22;5453;50.852;7.102;2023-05-10T06:51:53;15.10;99.90
10802;DHT22;5453;50.852;7.102;2023-05-10T06:54:25;15.10;99.90
10802;DHT22;5453;50.852;7.102;2023-05-10T06:56:59;15.10;99.90
10802;DHT22;5453;50.852;7.102;2023-05-10T07:02:05;15.50;99.90
10802;DHT22;5453;50.852;7.102;2023-05-10T07:04:37;15.90;99.90
10802;DHT22;5453;50.852;7.102;2023-05-10T07:07:09;16.20;99.90
10802;DHT22;5453;50.852;7.102;2023-05-10T07:09:41;16.50;99.90
10802;DHT22;5453;50.852;7.102;2023-05-10T07:12:14;16.70;99.90
10802;DHT22;5453;50.852;7.102;2023-05-10T07:14:47;16.80;99.90
10802;DHT22;5453;50.852;7.102;2023-05-10T07:17:19;16.80;99.90
10802;DHT22;5453;50.852;7.102;2023-05-10T07:19:51;16.80;99.90
10802;DHT22;5453;50.852;7.102;2023-05-10T07:22:23;16.90;99.90
10802;DHT22;5453;50.852;7.102;2023-05-10T07:24:55;16.90;99.90
10802;DHT22;5453;50.852;7.102;2023-05-10T07:27:28;17.00;99.90
10802;DHT22;5453;50.852;7.102;2023-05-10T07:30:00;16.90;99.90
10802;DHT22;5453;50.852;7.102;2023-05-10T07:32:33;16.90;99.90
10802;DHT22;5453;50.852;7.102;2023-05-10T07:35:05;16.80;99.90
10802;DHT22;5453;50.852;7.102;2023-05-10T07:37:37;16.70;99.90
10802;DHT22;5453;50.852;7.102;2023-05-10T07:40:10;16.70;99.90
10802;DHT22;5453;50.852;7.102;2023-05-10T07:42:44;16.70;99.90
10802;DHT22;5453;50.852;7.102;2023-05-10T07:45:16;16.80;99.90
10802;DHT22;5453;50.852;7.102;2023-05-10T07:47:48;16.80;99.90
10802;DHT22;5453;50.852;7.102;2023-05-10T07:50:20;16.80;99.90
10802;DHT22;5453;50.852;7.102;2023-05-10T07:52:52;16.70;99.90
10802;DHT22;5453;50.852;7.102;2023-05-10T07:55:24;16.50;99.90
10802;DHT22;5453;50.852;7.102;2023-05-10T07:57:58;16.30;99.90
10802;DHT22;5453;50.852;7.102;2023-05-10T08:00:31;16.10;99.90
10802;DHT22;5453;50.852;7.102;2023-05-10T08:03:03;16.00;99.90
10802;DHT22;5453;50.852;7.102;2023-05-10T08:05:35;15.90;99.90
10802;DHT22;5453;50.852;7.102;2023-05-10T08:08:07;15.80;99.90
10802;DHT22;5453;50.852;7.102;2023-05-10T08:10:40;15.70;99.90
10802;DHT22;5453;50.852;7.102;2023-05-10T08:13:13;15.70;99.90
10802;DHT22;5453;50.852;7.102;2023-05-10T08:15:45;15.60;99.90
10802;DHT22;5453;50.852;7.102;2023-05-10T08:18:18;15.60;99.90
10802;DHT22;5453;50.852;7.102;2023-05-10T08:20:50;15.60;99.90
10802;DHT22;5453;50.852;7.102;2023-05-10T08:23:22;15.60;99.90
10802;DHT22;5453;50.852;7.102;2023-05-10T08:25:54;15.60;99.90
10802;DHT22;5453;50.852;7.102;2023-05-10T08:28:27;15.70;99.90
10802;DHT22;5453;50.852;7.102;2023-05-10T08:30:59;15.70;99.90
10802;DHT22;5453;50.852;7.102;2023-05-10T08:33:31;15.70;99.90
10802;DHT22;5453;50.852;7.102;2023-05-10T08:36:04;15.70;99.90
10802;DHT22;5453;50.852;7.102;2023-05-10T08:38:37;15.70;99.90
10802;DHT22;5453;50.852;7.102;2023-05-10T08:41:10;15.70;99.90
10802;DHT22;5453;50.852;7.102;2023-05-10T08:43:44;15.70;99.90
10802;DHT22;5453;50.852;7.102;2023-05-10T08:46:18;15.80;99.90
10802;DHT22;5453;50.852;7.102;2023-05-10T08:48:51;15.80;99.90
10802;DHT22;5453;50.852;7.102;2023-05-10T08:51:27;15.80;99.90
10802;DHT22;5453;50.852;7.102;2023-05-10T08:54:03;15.80;99.90
10802;DHT22;5453;50.852;7.102;2023-05-10T08:56:36;15.90;99.90
10802;DHT22;5453;50.852;7.102;2023-05-10T08:59:10;16.00;99.90
10802;DHT22;5453;50.852;7.102;2023-05-10T09:01:45;16.20;99.90
10802;DHT22;5453;50.852;7.102;2023-05-10T09:04:21;16.40;99.90
10802;DHT22;5453;50.852;7.102;2023-05-10T09:06:53;16.40;99.90
10802;DHT22;5453;50.852;7.102;2023-05-10T09:09:25;16.40;99.90
10802;DHT22;5453;50.852;7.102;2023-05-10T09:11:57;16.30;99.90
10802;DHT22;5453;50.852;7.102;2023-05-10T09:14:34;16.20;99.90
10802;DHT22;5453;50.852;7.102;2023-05-10T09:17:09;16.00;99.90
10802;DHT22;5453;50.852;7.102;2023-05-10T09:19:41;15.90;99.90
10802;DHT22;5453;50.852;7.102;2023-05-10T09:22:13;15.70;99.90
10802;DHT22;5453;50.852;7.102;2023-05-10T09:24:45;15.70;99.90
10802;DHT22;5453;50.852;7.102;2023-05-10T09:27:26;15.70;99.90
10802;DHT22;5453;50.852;7.102;2023-05-10T09:30:00;15.70;99.90
10802;DHT22;5453;50.852;7.102;2023-05-10T09:32:39;15.80;99.90
10802;DHT22;5453;50.852;7.102;2023-05-10T09:35:13;15.80;99.90
10802;DHT22;5453;50.852;7.102;2023-05-10T09:37:47;15.80;99.90
10802;DHT22;5453;50.852;7.102;2023-05-10T09:40:22;15.90;99.90
10802;DHT22;5453;50.852;7.102;2023-05-10T09:42:57;15.90;99.90
10802;DHT22;5453;50.852;7.102;2023-05-10T09:45:31;16.00;99.90
10802;DHT22;5453;50.852;7.102;2023-05-10T09:48:05;16.00;99.90
10802;DHT22;5453;50.852;7.102;2023-05-10T09:50:37;16.10;99.90
10802;DHT22;5453;50.852;7.102;2023-05-10T09:53:14;16.10;99.90
10802;DHT22;5453;50.852;7.102;2023-05-10T09:55:47;16.10;99.90
10802;DHT22;5453;50.852;7.102;2023-05-10T09:58:21;16.00;99.90
10802;DHT22;5453;50.852;7.102;2023-05-10T10:00:54;16.00;99.90
10802;DHT22;5453;50.852;7.102;2023-05-10T10:03:28;15.90;99.90
10802;DHT22;5453;50.852;7.102;2023-05-10T10:06:01;15.80;99.90
10802;DHT22;5453;50.852;7.102;2023-05-10T10:08:33;15.70;99.90
10802;DHT22;5453;50.852;7.102;2023-05-10T10:11:05;15.70;99.90
10802;DHT22;5453;50.852;7.102;2023-05-10T10:13:37;15.70;99.90
10802;DHT22;5453;50.852;7.102;2023-05-10T10:16:11;15.80;99.90
10802;DHT22;5453;50.852;7.102;2023-05-10T10:18:43;15.90;99.90
10802;DHT22;5453;50.852;7.102;2023-05-10T10:21:16;16.00;99.90
10802;DHT22;5453;50.852;7.102;2023-05-10T10:23:49;16.00;99.90
10802;DHT22;5453;50.852;7.102;2023-05-10T10:26:22;15.90;99.90
10802;DHT22;5453;50.852;7.102;2023-05-10T10:29:04;15.90;99.90
10802;DHT22;5453;50.852;7.102;2023-05-10T10:31:46;15.90;99.90
10802;DHT22;5453;50.852;7.102;2023-05-10T10:34:26;16.00;99.90
10802;DHT22;5453;50.852;7.102;2023-05-10T10:37:04;16.00;99.90
10802;DHT22;5453;50.852;7.102;2023-05-10T10:39:37;16.20;99.90
10802;DHT22;5453;50.852;7.102;2023-05-10T10:42:11;16.20;99.90
10802;DHT22;5453;50.852;7.102;2023-05-10T10:44:43;16.30;99.90
10802;DHT22;5453;50.852;7.102;2023-05-10T10:47:23;16.50;99.90
10802;DHT22;5453;50.852;7.102;2023-05-10T10:50:04;16.80;99.90
10802;DHT22;5453;50.852;7.102;2023-05-10T10:52:38;16.90;99.90
10802;DHT22;5453;50.852;7.102;2023-05-10T10:55:12;17.00;99.90
10802;DHT22;5453;50.852;7.102;2023-05-10T10:57:47;17.00;99.90
10802;DHT22;5453;50.852;7.102;2023-05-10T11:00:29;16.90;99.90
10802;DHT22;5453;50.852;7.102;2023-05-10T11:03:04;16.90;99.90
10802;DHT22;5453;50.852;7.102;2023-05-10T11:05:42;16.80;99.90
10802;DHT22;5453;50.852;7.102;2023-05-10T11:08:17;16.70;99.90
10802;DHT22;5453;50.852;7.102;2023-05-10T11:11:03;16.60;99.90
10802;DHT22;5453;50.852;7.102;2023-05-10T11:13:39;16.60;99.90
10802;DHT22;5453;50.852;7.102;2023-05-10T11:16:15;16.50;99.90
10802;DHT22;5453;50.852;7.102;2023-05-10T11:18:59;16.60;99.90
10802;DHT22;5453;50.852;7.102;2023-05-10T11:21:44;16.50;99.90
10802;DHT22;5453;50.852;7.102;2023-05-10T11:24:18;16.60;99.90
10802;DHT22;5453;50.852;7.102;2023-05-10T11:26:51;16.60;99.90
10802;DHT22;5453;50.852;7.102;2023-05-10T11:29:23;16.70;99.90
10802;DHT22;5453;50.852;7.102;2023-05-10T11:31:57;16.70;99.90
10802;DHT22;5453;50.852;7.102;2023-05-10T11:34:32;16.80;99.90
10802;DHT22;5453;50.852;7.102;2023-05-10T11:37:04;16.80;99.90
10802;DHT22;5453;50.852;7.102;2023-05-10T11:39:36;17.00;99.90
10802;DHT22;5453;50.852;7.102;2023-05-10T11:42:08;17.10;99.90
10802;DHT22;5453;50.852;7.102;2023-05-10T11:44:41;17.30;99.90
10802;DHT22;5453;50.852;7.102;2023-05-10T11:47:16;17.50;99.90
10802;DHT22;5453;50.852;7.102;2023-05-10T11:49:50;17.80;99.90
10802;DHT22;5453;50.852;7.102;2023-05-10T11:52:23;18.10;99.90
10802;DHT22;5453;50.852;7.102;2023-05-10T11:54:55;18.30;99.90
10802;DHT22;5453;50.852;7.102;2023-05-10T11:57:29;18.50;99.90
10802;DHT22;5453;50.852;7.102;2023-05-10T12:00:02;18.80;99.90
10802;DHT22;5453;50.852;7.102;2023-05-10T12:02:38;18.90;99.90
10802;DHT22;5453;50.852;7.102;2023-05-10T12:05:12;19.10;99.90
10802;DHT22;5453;50.852;7.102;2023-05-10T12:07:44;19.20;99.90
10802;DHT22;5453;50.852;7.102;2023-05-10T12:10:25;19.30;99.90
10802;DHT22;5453;50.852;7.102;2023-05-10T12:12:57;19.40;99.90
10802;DHT22;5453;50.852;7.102;2023-05-10T12:15:30;19.50;99.90
10802;DHT22;5453;50.852;7.102;2023-05-10T12:18:02;19.50;99.90
10802;DHT22;5453;50.852;7.102;2023-05-10T12:20:37;19.60;99.90
10802;DHT22;5453;50.852;7.102;2023-05-10T12:23:10;19.50;99.90
10802;DHT22;5453;50.852;7.102;2023-05-10T12:25:43;19.50;99.90
10802;DHT22;5453;50.852;7.102;2023-05-10T12:28:19;19.40;99.90
10802;DHT22;5453;50.852;7.102;2023-05-10T12:30:53;19.40;99.90
10802;DHT22;5453;50.852;7.102;2023-05-10T12:33:26;19.40;99.90
10802;DHT22;5453;50.852;7.102;2023-05-10T12:35:59;19.40;99.90
10802;DHT22;5453;50.852;7.102;2023-05-10T12:38:33;19.40;99.90
10802;DHT22;5453;50.852;7.102;2023-05-10T12:41:09;19.40;99.90
10802;DHT22;5453;50.852;7.102;2023-05-10T12:43:41;19.40;99.90
10802;DHT22;5453;50.852;7.102;2023-05-10T12:46:15;19.50;99.90
10802;DHT22;5453;50.852;7.102;2023-05-10T12:48:49;19.50;99.90
10802;DHT22;5453;50.852;7.102;2023-05-10T12:51:26;19.70;99.90
10802;DHT22;5453;50.852;7.102;2023-05-10T12:53:58;19.80;99.90
10802;DHT22;5453;50.852;7.102;2023-05-10T12:56:30;19.90;99.90
10802;DHT22;5453;50.852;7.102;2023-05-10T12:59:02;19.90;99.90
10802;DHT22;5453;50.852;7.102;2023-05-10T13:01:35;19.90;99.90
10802;DHT22;5453;50.852;7.102;2023-05-10T13:04:07;19.80;99.90
10802;DHT22;5453;50.852;7.102;2023-05-10T13:06:40;19.70;99.90
10802;DHT22;5453;50.852;7.102;2023-05-10T13:09:12;19.70;99.90
10802;DHT22;5453;50.852;7.102;2023-05-10T13:11:44;19.70;99.90
10802;DHT22;5453;50.852;7.102;2023-05-10T13:14:18;19.70;99.90
10802;DHT22;5453;50.852;7.102;2023-05-10T13:16:50;19.80;99.90
10802;DHT22;5453;50.852;7.102;2023-05-10T13:19:23;19.90;99.90
10802;DHT22;5453;50.852;7.102;2023-05-10T13:21:56;19.90;99.90
10802;DHT22;5453;50.852;7.102;2023-05-10T13:24:28;19.90;99.90
10802;DHT22;5453;50.852;7.102;2023-05-10T13:27:00;19.90;99.90
10802;DHT22;5453;50.852;7.102;2023-05-10T13:29:32;19.90;99.90
10802;DHT22;5453;50.852;7.102;2023-05-10T13:32:05;19.90;99.90
10802;DHT22;5453;50.852;7.102;2023-05-10T13:34:37;19.90;99.90
10802;DHT22;5453;50.852;7.102;2023-05-10T13:37:10;19.80;99.90
10802;DHT22;5453;50.852;7.102;2023-05-10T13:39:42;19.80;99.90
10802;DHT22;5453;50.852;7.102;2023-05-10T13:42:14;19.70;99.90
10802;DHT22;5453;50.852;7.102;2023-05-10T13:44:47;19.60;99.90
10802;DHT22;5453;50.852;7.102;2023-05-10T13:47:19;19.50;99.90
10802;DHT22;5453;50.852;7.102;2023-05-10T13:49:52;19.50;99.90
10802;DHT22;5453;50.852;7.102;2023-05-10T13:52:26;19.50;99.90
10802;DHT22;5453;50.852;7.102;2023-05-10T13:54:58;19.50;99.90
10802;DHT22;5453;50.852;7.102;2023-05-10T13:57:30;19.50;99.90
10802;DHT22;5453;50.852;7.102;2023-05-10T14:00:02;19.50;99.90
10802;DHT22;5453;50.852;7.102;2023-05-10T14:02:38;19.40;99.90
10802;DHT22;5453;50.852;7.102;2023-05-10T14:05:11;19.30;99.90
10802;DHT22;5453;50.852;7.102;2023-05-10T14:07:44;19.30;99.90
10802;DHT22;5453;50.852;7.102;2023-05-10T14:10:16;19.10;99.90
10802;DHT22;5453;50.852;7.102;2023-05-10T14:12:49;19.00;99.90
10802;DHT22;5453;50.852;7.102;2023-05-10T14:15:21;19.00;99.90
10802;DHT22;5453;50.852;7.102;2023-05-10T14:17:53;19.00;99.90
10802;DHT22;5453;50.852;7.102;2023-05-10T14:20:25;18.90;99.90
10802;DHT22;5453;50.852;7.102;2023-05-10T14:22:59;18.90;99.90
10802;DHT22;5453;50.852;7.102;2023-05-10T14:25:31;18.90;99.90
10802;DHT22;5453;50.852;7.102;2023-05-10T14:28:03;18.90;99.90
10802;DHT22;5453;50.852;7.102;2023-05-10T14:30:36;18.80;99.90
10802;DHT22;5453;50.852;7.102;2023-05-10T14:33:08;18.90;99.90
10802;DHT22;5453;50.852;7.102;2023-05-10T14:35:40;18.90;99.90
10802;DHT22;5453;50.852;7.102;2023-05-10T14:38:14;18.90;99.90
10802;DHT22;5453;50.852;7.102;2023-05-10T14:40:48;18.90;99.90
10802;DHT22;5453;50.852;7.102;2023-05-10T14:43:22;18.90;99.90
10802;DHT22;5453;50.852;7.102;2023-05-10T14:45:54;18.90;99.90
10802;DHT22;5453;50.852;7.102;2023-05-10T14:48:27;18.80;99.90
10802;DHT22;5453;50.852;7.102;2023-05-10T14:51:00;18.70;99.90
10802;DHT22;5453;50.852;7.102;2023-05-10T14:53:34;18.70;99.90
10802;DHT22;5453;50.852;7.102;2023-05-10T14:56:06;18.60;99.90
10802;DHT22;5453;50.852;7.102;2023-05-10T14:58:39;18.50;99.90
10802;DHT22;5453;50.852;7.102;2023-05-10T15:01:12;18.40;99.90
10802;DHT22;5453;50.852;7.102;2023-05-10T15:03:44;18.40;99.90
10802;DHT22;5453;50.852;7.102;2023-05-10T15:06:23;18.30;99.90
10802;DHT22;5453;50.852;7.102;2023-05-10T15:08:59;18.30;99.90
10802;DHT22;5453;50.852;7.102;2023-05-10T15:11:32;18.30;99.90
10802;DHT22;5453;50.852;7.102;2023-05-10T15:14:04;18.30;99.90
10802;DHT22;5453;50.852;7.102;2023-05-10T15:16:37;18.30;99.90
10802;DHT22;5453;50.852;7.102;2023-05-10T15:19:10;18.40;99.90
10802;DHT22;5453;50.852;7.102;2023-05-10T15:21:42;18.50;99.90
10802;DHT22;5453;50.852;7.102;2023-05-10T15:24:16;18.50;99.90
10802;DHT22;5453;50.852;7.102;2023-05-10T15:26:49;18.50;99.90
10802;DHT22;5453;50.852;7.102;2023-05-10T15:29:21;18.50;99.90
10802;DHT22;5453;50.852;7.102;2023-05-10T15:31:54;18.50;99.90
10802;DHT22;5453;50.852;7.102;2023-05-10T15:34:27;18.50;99.90
10802;DHT22;5453;50.852;7.102;2023-05-10T15:36:59;18.40;99.90
10802;DHT22;5453;50.852;7.102;2023-05-10T15:39:33;18.40;99.90
10802;DHT22;5453;50.852;7.102;2023-05-10T15:42:05;18.30;99.90
10802;DHT22;5453;50.852;7.102;2023-05-10T15:44:37;18.20;99.90
10802;DHT22;5453;50.852;7.102;2023-05-10T15:47:09;18.10;99.90
10802;DHT22;5453;50.852;7.102;2023-05-10T15:49:42;18.10;99.90
10802;DHT22;5453;50.852;7.102;2023-05-10T15:52:14;18.00;99.90
10802;DHT22;5453;50.852;7.102;2023-05-10T15:54:52;18.00;99.90
10802;DHT22;5453;50.852;7.102;2023-05-10T15:57:24;18.00;99.90
10802;DHT22;5453;50.852;7.102;2023-05-10T15:59:57;17.90;99.90
10802;DHT22;5453;50.852;7.102;2023-05-10T16:02:30;17.80;99.90
10802;DHT22;5453;50.852;7.102;2023-05-10T16:05:03;17.80;99.90
10802;DHT22;5453;50.852;7.102;2023-05-10T16:07:35;17.60;99.90
10802;DHT22;5453;50.852;7.102;2023-05-10T16:10:10;17.50;99.90
10802;DHT22;5453;50.852;7.102;2023-05-10T16:12:44;17.50;99.90
10802;DHT22;5453;50.852;7.102;2023-05-10T16:15:17;17.40;99.90
10802;DHT22;5453;50.852;7.102;2023-05-10T16:17:51;17.30;99.90
10802;DHT22;5453;50.852;7.102;2023-05-10T16:20:23;17.10;99.90
10802;DHT22;5453;50.852;7.102;2023-05-10T16:22:55;17.10;99.90
10802;DHT22;5453;50.852;7.102;2023-05-10T16:25:29;17.00;99.90
10802;DHT22;5453;50.852;7.102;2023-05-10T16:28:02;16.90;99.90
10802;DHT22;5453;50.852;7.102;2023-05-10T16:30:35;16.90;99.90
10802;DHT22;5453;50.852;7.102;2023-05-10T16:33:09;16.90;99.90